Weather at Jacobs Well Airport

Public forecast

Using degrees Celsius for public forecast. Weather courtesy of forecast.io.

Closest aviation weather report (METAR) to Jacobs Well Airport

Closest report is Brisbane International Airport, 25.5 nm (47.2 km) NNW. Retrieved 2021/10/20 00:00 UTC (37 minutes ago):

YBBN 200000Z 10008KT 9999 FEW030 24/17 Q1015

Closest aviation forecast (TAF) to Jacobs Well Airport

Closest forecast is Brisbane International Airport, 25.5 nm (47.2 km) NNW. Retrieved 2021/10/19 21:44 UTC (3 hours ago):

TAF YBBN 192003Z 1921/2100 24004KT 9999 FEW015 FM200000 04012KT 9999 SCT030 FM201200 02006KT 9999 BKN016 FM201600 20006KT 9999 -SHRA BKN014 FM202100 05010KT 9999 -SHRA SCT015 INTER 2004/2009 4000 SHRA BKN012 PROB30 TEMPO 2004/2009 VRB20G40KT 2000 TSRA BKN012 SCT030CB PROB30 TEMPO 2016/2021 VRB20G40KT 2000 TSRA BKN010 SCT030CB